Davey, NE (68336)

3:34 AM CST on February 13, 2016 (GMT -0600)
APRSWXNET | | Change Station
CLOSE
Current Station
Personal Weather Station
Location: Davey, NE
Elevation: 1256 ft
Nearby Weather Stations

Elev 1256 ft 41.00 °N, 96.67 °W | Updated 23 minutes ago

Overcast
Overcast
12 °F
Feels Like 12 °F
N
0
Wind Variable Wind from ESE
Gusts 3.0 mph

Today
High -- | Low -- °F
--% Chance of Precip.
Yesterday
High -- | Low -- °F
Precip. -- in
Pressure 30.67 in
Visibility 10.0 miles
Clouds Overcast 8000 ft
Windchill 12 °F
Dew Point 5 °F
Humidity 74%
Rainfall in
Snow Depth Not available.
7:24 AM 5:58 PM
Waxing Crescent, 29% visible
METAR KLNK 130854Z 04006KT 10SM OVC080 M10/M16 A3061 RMK AO2 SLP384 T11001156 56009
Pressure 30.67 in
Visibility 10.0 miles
Clouds Overcast 8000 ft
Windchill 12 °F
Dew Point 5 °F
Humidity 74%
Rainfall in
Snow Depth Not available.
7:24 AM 5:58 PM
Waxing Crescent, 29% visible
METAR KLNK 130854Z 04006KT 10SM OVC080 M10/M16 A3061 RMK AO2 SLP384 T11001156 56009

10-Day Weather Forecast

Almanac

Astronomy

Feb. 13, 2016 Rise Set
Actual Time
Civil Twilight
Nautical Twilight
Astronomical Twilight
Moon
Length of Visible Light
Length of Day
Tomorrow will be .
, % of the Moon is Illuminated

Today's Extremes

State Highs State Lows

Community

WunderPhotos

Upload Photos

1,892,536 photos uploaded!

WunderBlog® & News

Nearby

Air Quality

  Air Quality AQ Index Pollutant
Not available.

Snow Depth

Station Depth Elevation

Earthquake Activity

City Distance Mag. Time & Date
Minimum magnitude displayed is 2.5.

Coastal Water Temperatures

Place Temperature

Stations

Nearby Weather Stations

Station Location Temp. Windchill Dew Point Humidity Wind Precip. Elev Updated Type
                   

Watches & Warnings

There are currently no watches in effect.